sensor_id;sensor_type;location;lat;lon;timestamp;P1;durP1;ratioP1;P2;durP2;ratioP2
7761;SDS011;3925;48.636;9.516;2022-09-09T00:00:18;1.80;;;1.03;;
7761;SDS011;3925;48.636;9.516;2022-09-09T00:02:47;2.90;;;1.20;;
7761;SDS011;3925;48.636;9.516;2022-09-09T00:05:23;2.03;;;1.00;;
7761;SDS011;3925;48.636;9.516;2022-09-09T00:07:58;2.80;;;1.00;;
7761;SDS011;3925;48.636;9.516;2022-09-09T00:10:29;3.47;;;0.90;;
7761;SDS011;3925;48.636;9.516;2022-09-09T00:13:01;0.73;;;0.73;;
7761;SDS011;3925;48.636;9.516;2022-09-09T00:15:37;1.97;;;1.00;;
7761;SDS011;3925;48.636;9.516;2022-09-09T00:18:11;1.40;;;0.87;;
7761;SDS011;3925;48.636;9.516;2022-09-09T00:20:47;1.80;;;0.77;;
7761;SDS011;3925;48.636;9.516;2022-09-09T00:23:21;1.63;;;1.00;;
7761;SDS011;3925;48.636;9.516;2022-09-09T00:25:53;3.60;;;1.00;;
7761;SDS011;3925;48.636;9.516;2022-09-09T00:28:27;1.90;;;1.00;;
7761;SDS011;3925;48.636;9.516;2022-09-09T00:30:57;1.63;;;1.00;;
7761;SDS011;3925;48.636;9.516;2022-09-09T00:33:27;3.30;;;0.70;;
7761;SDS011;3925;48.636;9.516;2022-09-09T00:35:57;1.90;;;0.87;;
7761;SDS011;3925;48.636;9.516;2022-09-09T00:38:25;1.70;;;0.77;;
7761;SDS011;3925;48.636;9.516;2022-09-09T00:41:00;3.60;;;0.90;;
7761;SDS011;3925;48.636;9.516;2022-09-09T00:43:34;1.10;;;0.90;;
7761;SDS011;3925;48.636;9.516;2022-09-09T00:46:09;1.20;;;0.73;;
7761;SDS011;3925;48.636;9.516;2022-09-09T00:48:50;1.83;;;1.00;;
7761;SDS011;3925;48.636;9.516;2022-09-09T00:51:24;1.70;;;1.10;;
7761;SDS011;3925;48.636;9.516;2022-09-09T00:54:04;1.30;;;1.00;;
7761;SDS011;3925;48.636;9.516;2022-09-09T00:56:46;2.77;;;1.30;;
7761;SDS011;3925;48.636;9.516;2022-09-09T00:59:24;1.77;;;0.80;;
7761;SDS011;3925;48.636;9.516;2022-09-09T01:01:57;1.70;;;0.80;;
7761;SDS011;3925;48.636;9.516;2022-09-09T01:04:28;0.70;;;0.70;;
7761;SDS011;3925;48.636;9.516;2022-09-09T01:07:02;2.80;;;1.50;;
7761;SDS011;3925;48.636;9.516;2022-09-09T01:09:41;1.47;;;1.00;;
7761;SDS011;3925;48.636;9.516;2022-09-09T01:12:15;2.00;;;0.90;;
7761;SDS011;3925;48.636;9.516;2022-09-09T01:14:47;2.23;;;0.80;;
7761;SDS011;3925;48.636;9.516;2022-09-09T01:17:17;6.63;;;1.00;;
7761;SDS011;3925;48.636;9.516;2022-09-09T01:19:54;4.27;;;1.10;;
7761;SDS011;3925;48.636;9.516;2022-09-09T01:22:29;2.03;;;0.90;;
7761;SDS011;3925;48.636;9.516;2022-09-09T01:27:52;1.43;;;1.20;;
7761;SDS011;3925;48.636;9.516;2022-09-09T01:30:22;5.20;;;1.23;;
7761;SDS011;3925;48.636;9.516;2022-09-09T01:32:50;1.63;;;1.20;;
7761;SDS011;3925;48.636;9.516;2022-09-09T01:35:22;1.13;;;0.73;;
7761;SDS011;3925;48.636;9.516;2022-09-09T01:38:03;2.83;;;1.00;;
7761;SDS011;3925;48.636;9.516;2022-09-09T01:40:30;1.97;;;0.80;;
7761;SDS011;3925;48.636;9.516;2022-09-09T01:42:59;1.93;;;1.10;;
7761;SDS011;3925;48.636;9.516;2022-09-09T01:45:26;1.30;;;0.90;;
7761;SDS011;3925;48.636;9.516;2022-09-09T01:47:54;2.30;;;1.30;;
7761;SDS011;3925;48.636;9.516;2022-09-09T01:50:21;1.40;;;0.70;;
7761;SDS011;3925;48.636;9.516;2022-09-09T01:52:50;2.90;;;1.13;;
7761;SDS011;3925;48.636;9.516;2022-09-09T01:55:21;1.80;;;0.87;;
7761;SDS011;3925;48.636;9.516;2022-09-09T01:57:57;1.70;;;0.90;;
7761;SDS011;3925;48.636;9.516;2022-09-09T02:00:39;2.00;;;1.23;;
7761;SDS011;3925;48.636;9.516;2022-09-09T02:03:12;3.13;;;0.97;;
7761;SDS011;3925;48.636;9.516;2022-09-09T02:05:49;1.80;;;1.27;;
7761;SDS011;3925;48.636;9.516;2022-09-09T02:08:23;2.60;;;1.00;;
7761;SDS011;3925;48.636;9.516;2022-09-09T02:10:55;2.67;;;1.33;;
7761;SDS011;3925;48.636;9.516;2022-09-09T02:13:27;1.80;;;0.90;;
7761;SDS011;3925;48.636;9.516;2022-09-09T02:15:55;1.03;;;0.90;;
7761;SDS011;3925;48.636;9.516;2022-09-09T02:18:27;1.97;;;1.20;;
7761;SDS011;3925;48.636;9.516;2022-09-09T02:21:00;1.80;;;1.10;;
7761;SDS011;3925;48.636;9.516;2022-09-09T02:23:29;1.60;;;1.10;;
7761;SDS011;3925;48.636;9.516;2022-09-09T02:25:58;2.00;;;1.07;;
7761;SDS011;3925;48.636;9.516;2022-09-09T02:28:28;3.30;;;1.00;;
7761;SDS011;3925;48.636;9.516;2022-09-09T02:30:57;3.60;;;1.37;;
7761;SDS011;3925;48.636;9.516;2022-09-09T02:33:26;2.27;;;1.50;;
7761;SDS011;3925;48.636;9.516;2022-09-09T02:35:56;4.70;;;1.33;;
7761;SDS011;3925;48.636;9.516;2022-09-09T02:38:28;4.53;;;1.50;;
7761;SDS011;3925;48.636;9.516;2022-09-09T02:41:00;2.07;;;1.10;;
7761;SDS011;3925;48.636;9.516;2022-09-09T02:43:31;2.30;;;1.40;;
7761;SDS011;3925;48.636;9.516;2022-09-09T02:46:01;1.80;;;1.60;;
7761;SDS011;3925;48.636;9.516;2022-09-09T02:48:35;2.40;;;1.23;;
7761;SDS011;3925;48.636;9.516;2022-09-09T02:51:13;5.40;;;1.47;;
7761;SDS011;3925;48.636;9.516;2022-09-09T02:53:44;2.10;;;1.03;;
7761;SDS011;3925;48.636;9.516;2022-09-09T02:56:16;9.23;;;1.60;;
7761;SDS011;3925;48.636;9.516;2022-09-09T02:58:47;4.00;;;1.57;;
7761;SDS011;3925;48.636;9.516;2022-09-09T03:01:17;3.00;;;1.27;;
7761;SDS011;3925;48.636;9.516;2022-09-09T03:03:44;1.37;;;0.90;;
7761;SDS011;3925;48.636;9.516;2022-09-09T03:06:11;2.37;;;1.47;;
7761;SDS011;3925;48.636;9.516;2022-09-09T03:08:39;2.03;;;1.03;;
7761;SDS011;3925;48.636;9.516;2022-09-09T03:11:07;2.10;;;1.40;;
7761;SDS011;3925;48.636;9.516;2022-09-09T03:13:35;2.77;;;1.40;;
7761;SDS011;3925;48.636;9.516;2022-09-09T03:16:04;7.53;;;1.83;;
7761;SDS011;3925;48.636;9.516;2022-09-09T03:18:31;3.13;;;1.97;;
7761;SDS011;3925;48.636;9.516;2022-09-09T03:20:59;1.53;;;1.43;;
7761;SDS011;3925;48.636;9.516;2022-09-09T03:23:26;2.30;;;1.00;;
7761;SDS011;3925;48.636;9.516;2022-09-09T03:25:53;4.50;;;1.63;;
7761;SDS011;3925;48.636;9.516;2022-09-09T03:28:22;2.33;;;1.40;;
7761;SDS011;3925;48.636;9.516;2022-09-09T03:30:57;3.73;;;1.33;;
7761;SDS011;3925;48.636;9.516;2022-09-09T03:33:26;2.07;;;1.67;;
7761;SDS011;3925;48.636;9.516;2022-09-09T03:35:53;2.87;;;1.10;;
7761;SDS011;3925;48.636;9.516;2022-09-09T03:38:21;1.20;;;1.10;;
7761;SDS011;3925;48.636;9.516;2022-09-09T03:40:49;1.83;;;1.40;;
7761;SDS011;3925;48.636;9.516;2022-09-09T03:43:20;4.33;;;1.00;;
7761;SDS011;3925;48.636;9.516;2022-09-09T03:45:47;4.13;;;1.50;;
7761;SDS011;3925;48.636;9.516;2022-09-09T03:48:14;4.53;;;1.30;;
7761;SDS011;3925;48.636;9.516;2022-09-09T03:50:45;1.33;;;1.20;;
7761;SDS011;3925;48.636;9.516;2022-09-09T03:53:12;4.70;;;1.40;;
7761;SDS011;3925;48.636;9.516;2022-09-09T03:55:43;1.80;;;1.00;;
7761;SDS011;3925;48.636;9.516;2022-09-09T03:58:10;2.43;;;1.37;;
7761;SDS011;3925;48.636;9.516;2022-09-09T04:00:37;3.43;;;1.00;;
7761;SDS011;3925;48.636;9.516;2022-09-09T04:03:10;3.70;;;1.43;;
7761;SDS011;3925;48.636;9.516;2022-09-09T04:05:38;4.00;;;1.73;;
7761;SDS011;3925;48.636;9.516;2022-09-09T04:08:08;2.73;;;1.27;;
7761;SDS011;3925;48.636;9.516;2022-09-09T04:10:36;2.00;;;1.30;;
7761;SDS011;3925;48.636;9.516;2022-09-09T04:13:03;5.30;;;1.33;;
7761;SDS011;3925;48.636;9.516;2022-09-09T04:15:30;2.73;;;1.27;;
7761;SDS011;3925;48.636;9.516;2022-09-09T04:17:58;3.93;;;1.40;;
7761;SDS011;3925;48.636;9.516;2022-09-09T04:20:25;3.30;;;1.30;;
7761;SDS011;3925;48.636;9.516;2022-09-09T04:22:52;5.53;;;1.73;;
7761;SDS011;3925;48.636;9.516;2022-09-09T04:25:20;2.70;;;1.07;;
7761;SDS011;3925;48.636;9.516;2022-09-09T04:27:47;3.30;;;1.43;;
7761;SDS011;3925;48.636;9.516;2022-09-09T04:30:19;3.77;;;2.00;;
7761;SDS011;3925;48.636;9.516;2022-09-09T04:32:46;1.97;;;1.33;;
7761;SDS011;3925;48.636;9.516;2022-09-09T04:35:13;2.90;;;1.37;;
7761;SDS011;3925;48.636;9.516;2022-09-09T04:37:40;2.17;;;1.20;;
7761;SDS011;3925;48.636;9.516;2022-09-09T04:40:07;2.10;;;1.50;;
7761;SDS011;3925;48.636;9.516;2022-09-09T04:42:36;1.07;;;1.07;;
7761;SDS011;3925;48.636;9.516;2022-09-09T04:45:04;3.07;;;1.20;;
7761;SDS011;3925;48.636;9.516;2022-09-09T04:47:33;2.60;;;1.50;;
7761;SDS011;3925;48.636;9.516;2022-09-09T04:50:00;2.57;;;1.57;;
7761;SDS011;3925;48.636;9.516;2022-09-09T04:52:27;4.53;;;1.40;;
7761;SDS011;3925;48.636;9.516;2022-09-09T04:54:54;2.77;;;0.97;;
7761;SDS011;3925;48.636;9.516;2022-09-09T04:57:21;1.60;;;1.10;;
7761;SDS011;3925;48.636;9.516;2022-09-09T04:59:49;7.17;;;1.77;;
7761;SDS011;3925;48.636;9.516;2022-09-09T05:02:16;1.83;;;1.20;;
7761;SDS011;3925;48.636;9.516;2022-09-09T05:04:43;2.23;;;1.27;;
7761;SDS011;3925;48.636;9.516;2022-09-09T05:07:10;3.33;;;1.17;;
7761;SDS011;3925;48.636;9.516;2022-09-09T05:09:36;2.23;;;1.37;;
7761;SDS011;3925;48.636;9.516;2022-09-09T05:12:03;3.23;;;1.30;;
7761;SDS011;3925;48.636;9.516;2022-09-09T05:14:30;0.80;;;0.80;;
7761;SDS011;3925;48.636;9.516;2022-09-09T05:16:59;1.50;;;0.90;;
7761;SDS011;3925;48.636;9.516;2022-09-09T05:19:25;2.00;;;1.20;;
7761;SDS011;3925;48.636;9.516;2022-09-09T05:21:52;4.67;;;1.03;;
7761;SDS011;3925;48.636;9.516;2022-09-09T05:24:19;0.80;;;0.80;;
7761;SDS011;3925;48.636;9.516;2022-09-09T05:26:48;2.53;;;1.20;;
7761;SDS011;3925;48.636;9.516;2022-09-09T05:29:15;2.70;;;1.20;;
7761;SDS011;3925;48.636;9.516;2022-09-09T05:31:44;1.57;;;1.30;;
7761;SDS011;3925;48.636;9.516;2022-09-09T05:34:13;3.80;;;1.20;;
7761;SDS011;3925;48.636;9.516;2022-09-09T05:36:40;4.77;;;1.10;;
7761;SDS011;3925;48.636;9.516;2022-09-09T05:39:07;1.63;;;1.30;;
7761;SDS011;3925;48.636;9.516;2022-09-09T05:41:33;1.07;;;0.97;;
7761;SDS011;3925;48.636;9.516;2022-09-09T05:44:01;3.70;;;1.83;;
7761;SDS011;3925;48.636;9.516;2022-09-09T05:46:28;1.53;;;1.23;;
7761;SDS011;3925;48.636;9.516;2022-09-09T05:48:55;2.20;;;1.10;;
7761;SDS011;3925;48.636;9.516;2022-09-09T05:51:25;2.37;;;1.10;;
7761;SDS011;3925;48.636;9.516;2022-09-09T05:53:55;2.10;;;1.20;;
7761;SDS011;3925;48.636;9.516;2022-09-09T05:56:24;3.37;;;1.43;;
7761;SDS011;3925;48.636;9.516;2022-09-09T05:58:52;1.50;;;1.40;;
7761;SDS011;3925;48.636;9.516;2022-09-09T06:01:20;1.80;;;1.30;;
7761;SDS011;3925;48.636;9.516;2022-09-09T06:03:49;1.80;;;1.27;;
7761;SDS011;3925;48.636;9.516;2022-09-09T06:06:18;2.13;;;1.20;;
7761;SDS011;3925;48.636;9.516;2022-09-09T06:08:49;2.40;;;1.50;;
7761;SDS011;3925;48.636;9.516;2022-09-09T06:11:18;3.10;;;1.10;;
7761;SDS011;3925;48.636;9.516;2022-09-09T06:13:46;2.73;;;1.17;;
7761;SDS011;3925;48.636;9.516;2022-09-09T06:16:17;3.30;;;1.33;;
7761;SDS011;3925;48.636;9.516;2022-09-09T06:18:44;1.50;;;1.33;;
7761;SDS011;3925;48.636;9.516;2022-09-09T06:21:14;1.87;;;0.90;;
7761;SDS011;3925;48.636;9.516;2022-09-09T06:23:42;4.87;;;1.40;;
7761;SDS011;3925;48.636;9.516;2022-09-09T06:26:12;2.10;;;1.07;;
7761;SDS011;3925;48.636;9.516;2022-09-09T06:28:40;5.93;;;1.10;;
7761;SDS011;3925;48.636;9.516;2022-09-09T06:31:08;1.93;;;1.10;;
7761;SDS011;3925;48.636;9.516;2022-09-09T06:33:36;5.30;;;1.23;;
7761;SDS011;3925;48.636;9.516;2022-09-09T06:36:06;2.03;;;1.13;;
7761;SDS011;3925;48.636;9.516;2022-09-09T06:38:36;1.47;;;0.93;;
7761;SDS011;3925;48.636;9.516;2022-09-09T06:41:03;2.87;;;1.13;;
7761;SDS011;3925;48.636;9.516;2022-09-09T06:43:32;2.93;;;0.80;;
7761;SDS011;3925;48.636;9.516;2022-09-09T06:46:00;3.27;;;1.23;;
7761;SDS011;3925;48.636;9.516;2022-09-09T06:48:29;1.90;;;1.30;;
7761;SDS011;3925;48.636;9.516;2022-09-09T06:51:03;2.50;;;1.60;;
7761;SDS011;3925;48.636;9.516;2022-09-09T06:53:32;2.60;;;1.30;;
7761;SDS011;3925;48.636;9.516;2022-09-09T06:55:59;3.50;;;1.50;;
7761;SDS011;3925;48.636;9.516;2022-09-09T06:58:27;1.27;;;1.07;;
7761;SDS011;3925;48.636;9.516;2022-09-09T07:01:02;2.30;;;1.37;;
7761;SDS011;3925;48.636;9.516;2022-09-09T07:03:30;2.17;;;1.43;;
7761;SDS011;3925;48.636;9.516;2022-09-09T07:05:57;3.57;;;1.20;;
7761;SDS011;3925;48.636;9.516;2022-09-09T07:08:24;1.03;;;0.87;;
7761;SDS011;3925;48.636;9.516;2022-09-09T07:10:51;2.77;;;1.37;;
7761;SDS011;3925;48.636;9.516;2022-09-09T07:13:19;3.03;;;1.20;;
7761;SDS011;3925;48.636;9.516;2022-09-09T07:15:49;1.40;;;1.20;;
7761;SDS011;3925;48.636;9.516;2022-09-09T07:18:18;3.70;;;2.00;;
7761;SDS011;3925;48.636;9.516;2022-09-09T07:20:52;5.87;;;2.00;;
7761;SDS011;3925;48.636;9.516;2022-09-09T07:23:20;1.70;;;1.60;;
7761;SDS011;3925;48.636;9.516;2022-09-09T07:25:47;2.33;;;1.20;;
7761;SDS011;3925;48.636;9.516;2022-09-09T07:28:14;3.10;;;1.10;;
7761;SDS011;3925;48.636;9.516;2022-09-09T07:30:41;1.97;;;0.93;;
7761;SDS011;3925;48.636;9.516;2022-09-09T07:33:08;2.07;;;1.20;;
7761;SDS011;3925;48.636;9.516;2022-09-09T07:35:37;1.83;;;1.50;;
7761;SDS011;3925;48.636;9.516;2022-09-09T07:38:04;4.37;;;1.40;;
7761;SDS011;3925;48.636;9.516;2022-09-09T07:40:31;5.87;;;1.20;;
7761;SDS011;3925;48.636;9.516;2022-09-09T07:42:58;2.03;;;1.70;;
7761;SDS011;3925;48.636;9.516;2022-09-09T07:45:25;3.10;;;1.47;;
7761;SDS011;3925;48.636;9.516;2022-09-09T07:47:54;1.80;;;1.10;;
7761;SDS011;3925;48.636;9.516;2022-09-09T07:50:21;2.63;;;1.20;;
7761;SDS011;3925;48.636;9.516;2022-09-09T07:52:50;3.47;;;1.20;;
7761;SDS011;3925;48.636;9.516;2022-09-09T07:55:18;2.70;;;1.13;;
7761;SDS011;3925;48.636;9.516;2022-09-09T07:57:45;4.33;;;1.20;;
7761;SDS011;3925;48.636;9.516;2022-09-09T08:00:12;2.47;;;1.03;;
7761;SDS011;3925;48.636;9.516;2022-09-09T08:02:40;3.23;;;1.07;;
7761;SDS011;3925;48.636;9.516;2022-09-09T08:05:08;2.40;;;1.33;;
7761;SDS011;3925;48.636;9.516;2022-09-09T08:07:37;4.13;;;1.30;;
7761;SDS011;3925;48.636;9.516;2022-09-09T08:10:06;1.87;;;1.30;;
7761;SDS011;3925;48.636;9.516;2022-09-09T08:12:33;1.73;;;1.03;;
7761;SDS011;3925;48.636;9.516;2022-09-09T08:15:00;1.57;;;0.97;;
7761;SDS011;3925;48.636;9.516;2022-09-09T08:17:27;4.13;;;1.43;;
7761;SDS011;3925;48.636;9.516;2022-09-09T08:19:54;3.40;;;1.20;;
7761;SDS011;3925;48.636;9.516;2022-09-09T08:22:20;2.87;;;1.27;;
7761;SDS011;3925;48.636;9.516;2022-09-09T08:24:49;3.10;;;1.43;;
7761;SDS011;3925;48.636;9.516;2022-09-09T08:27:18;3.30;;;1.10;;
7761;SDS011;3925;48.636;9.516;2022-09-09T08:29:45;2.53;;;0.90;;
7761;SDS011;3925;48.636;9.516;2022-09-09T08:32:16;3.30;;;1.07;;
7761;SDS011;3925;48.636;9.516;2022-09-09T08:34:43;4.73;;;1.07;;
7761;SDS011;3925;48.636;9.516;2022-09-09T08:37:10;3.60;;;1.10;;
7761;SDS011;3925;48.636;9.516;2022-09-09T08:39:37;1.70;;;0.63;;
7761;SDS011;3925;48.636;9.516;2022-09-09T08:42:17;2.37;;;0.80;;
7761;SDS011;3925;48.636;9.516;2022-09-09T08:45:12;2.50;;;1.23;;
7761;SDS011;3925;48.636;9.516;2022-09-09T08:47:49;2.50;;;1.03;;
7761;SDS011;3925;48.636;9.516;2022-09-09T08:50:24;2.30;;;1.13;;
7761;SDS011;3925;48.636;9.516;2022-09-09T08:52:54;1.37;;;0.83;;
7761;SDS011;3925;48.636;9.516;2022-09-09T08:55:28;2.17;;;1.20;;
7761;SDS011;3925;48.636;9.516;2022-09-09T08:58:04;4.57;;;1.07;;
7761;SDS011;3925;48.636;9.516;2022-09-09T09:00:40;4.73;;;1.43;;
7761;SDS011;3925;48.636;9.516;2022-09-09T09:03:15;3.93;;;1.70;;
7761;SDS011;3925;48.636;9.516;2022-09-09T09:05:51;4.40;;;1.90;;
7761;SDS011;3925;48.636;9.516;2022-09-09T09:08:29;2.30;;;1.43;;
7761;SDS011;3925;48.636;9.516;2022-09-09T09:11:03;4.63;;;1.30;;
7761;SDS011;3925;48.636;9.516;2022-09-09T09:13:32;5.17;;;1.20;;
7761;SDS011;3925;48.636;9.516;2022-09-09T09:18:57;3.27;;;1.20;;
7761;SDS011;3925;48.636;9.516;2022-09-09T09:21:32;2.77;;;1.70;;
7761;SDS011;3925;48.636;9.516;2022-09-09T09:24:06;2.83;;;1.23;;
7761;SDS011;3925;48.636;9.516;2022-09-09T09:26:42;3.10;;;1.70;;
7761;SDS011;3925;48.636;9.516;2022-09-09T09:29:10;3.30;;;1.47;;
7761;SDS011;3925;48.636;9.516;2022-09-09T09:31:43;3.90;;;1.70;;
7761;SDS011;3925;48.636;9.516;2022-09-09T09:34:13;1.87;;;0.90;;
7761;SDS011;3925;48.636;9.516;2022-09-09T09:36:41;1.83;;;1.10;;
7761;SDS011;3925;48.636;9.516;2022-09-09T09:39:21;2.30;;;1.20;;
7761;SDS011;3925;48.636;9.516;2022-09-09T09:41:50;4.30;;;1.60;;
7761;SDS011;3925;48.636;9.516;2022-09-09T09:44:24;4.00;;;1.27;;
7761;SDS011;3925;48.636;9.516;2022-09-09T09:47:04;3.40;;;1.40;;
7761;SDS011;3925;48.636;9.516;2022-09-09T09:49:33;3.53;;;1.30;;
7761;SDS011;3925;48.636;9.516;2022-09-09T09:52:00;2.70;;;1.13;;
7761;SDS011;3925;48.636;9.516;2022-09-09T09:54:28;2.37;;;1.00;;
7761;SDS011;3925;48.636;9.516;2022-09-09T09:57:06;2.23;;;1.17;;
7761;SDS011;3925;48.636;9.516;2022-09-09T09:59:35;1.13;;;0.87;;
7761;SDS011;3925;48.636;9.516;2022-09-09T10:05:03;2.87;;;1.10;;
7761;SDS011;3925;48.636;9.516;2022-09-09T10:07:31;1.70;;;1.00;;
7761;SDS011;3925;48.636;9.516;2022-09-09T10:09:59;1.97;;;0.90;;
7761;SDS011;3925;48.636;9.516;2022-09-09T10:12:30;3.10;;;0.83;;
7761;SDS011;3925;48.636;9.516;2022-09-09T10:15:14;2.57;;;1.17;;
7761;SDS011;3925;48.636;9.516;2022-09-09T10:18:02;2.43;;;1.13;;
7761;SDS011;3925;48.636;9.516;2022-09-09T10:20:43;1.73;;;0.80;;
7761;SDS011;3925;48.636;9.516;2022-09-09T10:23:22;1.37;;;0.63;;
7761;SDS011;3925;48.636;9.516;2022-09-09T10:28:51;2.57;;;1.00;;
7761;SDS011;3925;48.636;9.516;2022-09-09T10:31:43;2.63;;;0.90;;
7761;SDS011;3925;48.636;9.516;2022-09-09T10:34:22;2.60;;;1.00;;
7761;SDS011;3925;48.636;9.516;2022-09-09T10:37:01;3.10;;;1.33;;
7761;SDS011;3925;48.636;9.516;2022-09-09T10:39:35;2.67;;;0.97;;
7761;SDS011;3925;48.636;9.516;2022-09-09T10:42:06;1.33;;;0.60;;
7761;SDS011;3925;48.636;9.516;2022-09-09T10:44:45;2.13;;;1.00;;
7761;SDS011;3925;48.636;9.516;2022-09-09T10:47:30;2.10;;;0.97;;
7761;SDS011;3925;48.636;9.516;2022-09-09T10:50:14;1.53;;;0.90;;
7761;SDS011;3925;48.636;9.516;2022-09-09T10:52:52;1.47;;;1.13;;
7761;SDS011;3925;48.636;9.516;2022-09-09T10:55:32;1.93;;;1.00;;
7761;SDS011;3925;48.636;9.516;2022-09-09T10:58:03;1.53;;;0.83;;
7761;SDS011;3925;48.636;9.516;2022-09-09T11:00:36;2.10;;;1.33;;
7761;SDS011;3925;48.636;9.516;2022-09-09T11:03:06;2.20;;;1.27;;
7761;SDS011;3925;48.636;9.516;2022-09-09T11:44:23;2.40;;;0.97;;
7761;SDS011;3925;48.636;9.516;2022-09-09T11:46:54;4.33;;;1.27;;
7761;SDS011;3925;48.636;9.516;2022-09-09T11:49:26;3.60;;;1.17;;
7761;SDS011;3925;48.636;9.516;2022-09-09T11:51:55;1.33;;;0.90;;
7761;SDS011;3925;48.636;9.516;2022-09-09T11:54:27;4.10;;;1.30;;
7761;SDS011;3925;48.636;9.516;2022-09-09T11:56:55;2.23;;;1.20;;
7761;SDS011;3925;48.636;9.516;2022-09-09T11:59:25;3.03;;;1.30;;
7761;SDS011;3925;48.636;9.516;2022-09-09T12:01:55;1.93;;;0.93;;
7761;SDS011;3925;48.636;9.516;2022-09-09T12:07:22;1.87;;;1.00;;
7761;SDS011;3925;48.636;9.516;2022-09-09T12:09:58;4.13;;;1.20;;
7761;SDS011;3925;48.636;9.516;2022-09-09T12:12:30;2.33;;;1.40;;
7761;SDS011;3925;48.636;9.516;2022-09-09T12:17:49;2.73;;;1.37;;
7761;SDS011;3925;48.636;9.516;2022-09-09T12:20:18;1.70;;;0.90;;
7761;SDS011;3925;48.636;9.516;2022-09-09T12:22:50;2.03;;;1.07;;
7761;SDS011;3925;48.636;9.516;2022-09-09T12:25:36;2.70;;;0.90;;
7761;SDS011;3925;48.636;9.516;2022-09-09T12:28:15;1.53;;;0.87;;
7761;SDS011;3925;48.636;9.516;2022-09-09T12:30:48;2.67;;;1.27;;
7761;SDS011;3925;48.636;9.516;2022-09-09T12:33:21;3.10;;;1.07;;
7761;SDS011;3925;48.636;9.516;2022-09-09T12:35:50;1.00;;;0.47;;
7761;SDS011;3925;48.636;9.516;2022-09-09T12:38:22;2.03;;;0.80;;
7761;SDS011;3925;48.636;9.516;2022-09-09T12:40:58;4.30;;;1.00;;
7761;SDS011;3925;48.636;9.516;2022-09-09T12:43:26;0.90;;;0.70;;
7761;SDS011;3925;48.636;9.516;2022-09-09T12:45:56;1.00;;;0.50;;
7761;SDS011;3925;48.636;9.516;2022-09-09T12:48:30;1.37;;;0.50;;
7761;SDS011;3925;48.636;9.516;2022-09-09T12:51:01;1.17;;;0.60;;
7761;SDS011;3925;48.636;9.516;2022-09-09T12:53:31;0.70;;;0.70;;
7761;SDS011;3925;48.636;9.516;2022-09-09T12:56:00;1.73;;;0.77;;
7761;SDS011;3925;48.636;9.516;2022-09-09T12:58:30;1.30;;;0.70;;
7761;SDS011;3925;48.636;9.516;2022-09-09T13:01:00;1.10;;;0.50;;
7761;SDS011;3925;48.636;9.516;2022-09-09T13:03:33;1.20;;;0.60;;
7761;SDS011;3925;48.636;9.516;2022-09-09T13:06:11;1.37;;;0.50;;
7761;SDS011;3925;48.636;9.516;2022-09-09T13:08:39;0.90;;;0.50;;
7761;SDS011;3925;48.636;9.516;2022-09-09T13:11:07;1.63;;;0.40;;
7761;SDS011;3925;48.636;9.516;2022-09-09T13:13:39;2.30;;;0.60;;
7761;SDS011;3925;48.636;9.516;2022-09-09T13:16:18;1.93;;;0.70;;
7761;SDS011;3925;48.636;9.516;2022-09-09T13:18:46;3.50;;;0.83;;
7761;SDS011;3925;48.636;9.516;2022-09-09T13:21:14;1.53;;;0.67;;
7761;SDS011;3925;48.636;9.516;2022-09-09T13:23:42;1.60;;;0.90;;
7761;SDS011;3925;48.636;9.516;2022-09-09T13:26:22;3.80;;;0.73;;
7761;SDS011;3925;48.636;9.516;2022-09-09T13:28:50;2.20;;;0.77;;
7761;SDS011;3925;48.636;9.516;2022-09-09T13:31:21;2.37;;;0.80;;
7761;SDS011;3925;48.636;9.516;2022-09-09T13:33:49;2.73;;;1.00;;
7761;SDS011;3925;48.636;9.516;2022-09-09T13:36:26;2.93;;;1.20;;
7761;SDS011;3925;48.636;9.516;2022-09-09T13:38:55;3.30;;;1.23;;
7761;SDS011;3925;48.636;9.516;2022-09-09T13:41:25;2.37;;;1.00;;
7761;SDS011;3925;48.636;9.516;2022-09-09T13:43:55;2.23;;;1.00;;
7761;SDS011;3925;48.636;9.516;2022-09-09T13:46:26;1.23;;;0.60;;
7761;SDS011;3925;48.636;9.516;2022-09-09T13:48:58;2.90;;;0.83;;
7761;SDS011;3925;48.636;9.516;2022-09-09T13:51:34;3.40;;;0.97;;
7761;SDS011;3925;48.636;9.516;2022-09-09T13:54:02;2.50;;;0.80;;
7761;SDS011;3925;48.636;9.516;2022-09-09T13:56:31;1.97;;;0.80;;
7761;SDS011;3925;48.636;9.516;2022-09-09T13:58:58;2.67;;;0.90;;
7761;SDS011;3925;48.636;9.516;2022-09-09T14:01:26;1.40;;;0.53;;
7761;SDS011;3925;48.636;9.516;2022-09-09T14:03:54;1.90;;;0.77;;
7761;SDS011;3925;48.636;9.516;2022-09-09T14:06:21;2.30;;;1.03;;
7761;SDS011;3925;48.636;9.516;2022-09-09T14:08:48;2.20;;;0.70;;
7761;SDS011;3925;48.636;9.516;2022-09-09T14:11:16;1.90;;;0.70;;
7761;SDS011;3925;48.636;9.516;2022-09-09T14:13:44;2.57;;;0.80;;
7761;SDS011;3925;48.636;9.516;2022-09-09T14:16:11;2.57;;;0.80;;
7761;SDS011;3925;48.636;9.516;2022-09-09T14:18:40;3.43;;;1.33;;
7761;SDS011;3925;48.636;9.516;2022-09-09T14:21:07;1.53;;;0.70;;
7761;SDS011;3925;48.636;9.516;2022-09-09T14:23:34;2.73;;;0.60;;
7761;SDS011;3925;48.636;9.516;2022-09-09T15:04:47;1.03;;;0.40;;
7761;SDS011;3925;48.636;9.516;2022-09-09T15:07:15;2.40;;;0.80;;
7761;SDS011;3925;48.636;9.516;2022-09-09T15:09:44;2.90;;;0.80;;
7761;SDS011;3925;48.636;9.516;2022-09-09T15:12:12;1.57;;;0.70;;
7761;SDS011;3925;48.636;9.516;2022-09-09T15:14:40;2.43;;;0.80;;
7761;SDS011;3925;48.636;9.516;2022-09-09T15:17:07;1.43;;;0.60;;
7761;SDS011;3925;48.636;9.516;2022-09-09T15:19:34;2.37;;;0.63;;
7761;SDS011;3925;48.636;9.516;2022-09-09T15:22:03;1.27;;;0.63;;
7761;SDS011;3925;48.636;9.516;2022-09-09T15:24:31;1.10;;;0.57;;
7761;SDS011;3925;48.636;9.516;2022-09-09T15:26:58;1.20;;;0.70;;
7761;SDS011;3925;48.636;9.516;2022-09-09T15:29:26;5.77;;;0.70;;
7761;SDS011;3925;48.636;9.516;2022-09-09T15:31:53;1.00;;;0.43;;
7761;SDS011;3925;48.636;9.516;2022-09-09T15:34:20;1.53;;;0.63;;
7761;SDS011;3925;48.636;9.516;2022-09-09T15:36:47;0.97;;;0.87;;
7761;SDS011;3925;48.636;9.516;2022-09-09T15:39:17;2.03;;;1.00;;
7761;SDS011;3925;48.636;9.516;2022-09-09T15:41:44;2.10;;;0.70;;
7761;SDS011;3925;48.636;9.516;2022-09-09T15:44:13;2.27;;;1.07;;
7761;SDS011;3925;48.636;9.516;2022-09-09T15:46:41;2.40;;;0.83;;
7761;SDS011;3925;48.636;9.516;2022-09-09T15:49:09;2.53;;;0.80;;
7761;SDS011;3925;48.636;9.516;2022-09-09T15:51:38;1.57;;;0.83;;
7761;SDS011;3925;48.636;9.516;2022-09-09T16:37:51;4.57;;;0.77;;
7761;SDS011;3925;48.636;9.516;2022-09-09T16:40:18;5.13;;;1.10;;
7761;SDS011;3925;48.636;9.516;2022-09-09T16:42:45;2.00;;;0.80;;
7761;SDS011;3925;48.636;9.516;2022-09-09T16:45:12;2.00;;;0.60;;
7761;SDS011;3925;48.636;9.516;2022-09-09T16:47:39;1.33;;;0.67;;
7761;SDS011;3925;48.636;9.516;2022-09-09T16:50:06;1.30;;;0.70;;
7761;SDS011;3925;48.636;9.516;2022-09-09T16:52:33;1.57;;;0.83;;
7761;SDS011;3925;48.636;9.516;2022-09-09T16:55:02;1.40;;;0.70;;
7761;SDS011;3925;48.636;9.516;2022-09-09T16:57:30;0.87;;;0.50;;
7761;SDS011;3925;48.636;9.516;2022-09-09T16:59:56;0.80;;;0.50;;
7761;SDS011;3925;48.636;9.516;2022-09-09T17:02:24;2.20;;;0.60;;
7761;SDS011;3925;48.636;9.516;2022-09-09T17:04:51;1.13;;;0.60;;
7761;SDS011;3925;48.636;9.516;2022-09-09T17:07:18;1.40;;;0.43;;
7761;SDS011;3925;48.636;9.516;2022-09-09T17:09:44;1.23;;;0.50;;
7761;SDS011;3925;48.636;9.516;2022-09-09T17:12:13;1.23;;;0.67;;
7761;SDS011;3925;48.636;9.516;2022-09-09T17:14:41;1.37;;;0.90;;
7761;SDS011;3925;48.636;9.516;2022-09-09T17:17:08;1.27;;;0.40;;
7761;SDS011;3925;48.636;9.516;2022-09-09T17:19:34;1.27;;;0.43;;
7761;SDS011;3925;48.636;9.516;2022-09-09T17:22:01;2.40;;;0.90;;
7761;SDS011;3925;48.636;9.516;2022-09-09T17:24:28;1.40;;;0.40;;
7761;SDS011;3925;48.636;9.516;2022-09-09T17:26:55;1.20;;;0.67;;
7761;SDS011;3925;48.636;9.516;2022-09-09T17:29:24;2.50;;;1.00;;
7761;SDS011;3925;48.636;9.516;2022-09-09T17:59:09;2.13;;;0.60;;
7761;SDS011;3925;48.636;9.516;2022-09-09T18:01:38;1.07;;;0.80;;
7761;SDS011;3925;48.636;9.516;2022-09-09T18:04:06;1.63;;;0.60;;
7761;SDS011;3925;48.636;9.516;2022-09-09T18:06:35;1.80;;;0.60;;
7761;SDS011;3925;48.636;9.516;2022-09-09T18:09:04;0.73;;;0.70;;
7761;SDS011;3925;48.636;9.516;2022-09-09T18:11:33;5.13;;;0.80;;
7761;SDS011;3925;48.636;9.516;2022-09-09T18:14:08;1.13;;;0.70;;
7761;SDS011;3925;48.636;9.516;2022-09-09T18:16:36;0.70;;;0.50;;
7761;SDS011;3925;48.636;9.516;2022-09-09T18:19:04;1.17;;;0.40;;